Time;durP1;ratioP1;P1;durP2;ratioP2;P2;SDS_P1;SDS_P2;PMS_P1;PMS_P2;Temp;Humidity;BMP_temperature;BMP_pressure;BME280_temperature;BME280_humidity;BME280_pressure;Samples;Min_cycle;Max_cycle;Signal;HPM_P1;HPM_P2
2023/08/24 00:00:20;;;;;;;7.43;6.40;;;13.70;90.60;;;;;;5017701;28;20288;-67
2023/08/24 00:02:46;;;;;;;10.17;8.07;;;13.70;90.70;;;;;;5019954;28;20052;-67
2023/08/24 00:05:12;;;;;;;10.20;7.50;;;13.80;91.00;;;;;;5016291;28;20291;-67
2023/08/24 00:07:39;;;;;;;11.53;7.33;;;13.80;91.20;;;;;;5027151;28;20196;-67
2023/08/24 00:10:05;;;;;;;8.67;6.67;;;13.90;91.10;;;;;;5025256;28;20347;-67
2023/08/24 00:12:35;;;;;;;9.67;6.50;;;13.90;91.10;;;;;;5023078;28;20295;-67
2023/08/24 00:15:02;;;;;;;18.87;8.03;;;13.90;91.10;;;;;;5026515;28;20376;-67
2023/08/24 00:17:28;;;;;;;10.67;8.03;;;13.90;91.30;;;;;;5029164;28;20635;-67
2023/08/24 00:19:54;;;;;;;11.43;8.83;;;14.00;91.60;;;;;;5027939;28;20275;-67
2023/08/24 00:22:19;;;;;;;13.13;7.97;;;14.10;91.70;;;;;;5020072;28;20159;-67
2023/08/24 00:24:45;;;;;;;12.23;7.73;;;14.10;91.90;;;;;;5030295;28;20047;-67
2023/08/24 00:27:11;;;;;;;12.63;8.07;;;14.20;91.70;;;;;;5029482;28;20032;-67
2023/08/24 00:29:36;;;;;;;11.53;8.40;;;14.30;91.90;;;;;;5026332;28;20588;-67
2023/08/24 00:32:02;;;;;;;13.07;7.87;;;14.40;91.90;;;;;;5023660;28;20781;-67
2023/08/24 00:34:28;;;;;;;13.80;9.53;;;14.40;91.90;;;;;;5008045;28;20060;-67
2023/08/24 00:36:54;;;;;;;13.07;10.00;;;14.40;91.90;;;;;;5008987;28;20280;-67
2023/08/24 00:39:20;;;;;;;13.77;9.57;;;14.50;92.00;;;;;;5008583;28;20111;-67
2023/08/24 00:41:46;;;;;;;12.17;9.33;;;14.60;92.20;;;;;;5008204;28;20413;-67
2023/08/24 00:44:12;;;;;;;13.70;10.27;;;14.70;92.20;;;;;;5005273;28;20384;-67
2023/08/24 00:46:38;;;;;;;15.13;10.30;;;14.70;92.30;;;;;;5008520;28;20525;-67
2023/08/24 00:49:03;;;;;;;12.27;10.27;;;14.70;92.30;;;;;;5010056;28;20063;-67
2023/08/24 00:51:29;;;;;;;13.63;9.87;;;14.80;92.40;;;;;;5012607;28;20269;-67
2023/08/24 00:53:57;;;;;;;12.70;9.47;;;14.80;92.50;;;;;;5011503;28;20133;-67
2023/08/24 00:56:24;;;;;;;12.17;9.93;;;14.80;92.40;;;;;;5011145;28;20050;-67
2023/08/24 00:58:51;;;;;;;13.87;9.40;;;14.90;92.50;;;;;;5009469;28;20369;-67
2023/08/24 01:01:19;;;;;;;14.30;9.13;;;14.90;92.80;;;;;;5012004;28;20291;-67
2023/08/24 01:03:45;;;;;;;13.87;9.20;;;14.90;92.80;;;;;;5006610;28;20284;-67
2023/08/24 01:06:11;;;;;;;15.90;9.53;;;15.00;93.00;;;;;;5006700;28;20384;-67
2023/08/24 01:08:37;;;;;;;13.57;9.00;;;15.00;93.00;;;;;;5010010;28;20056;-67
2023/08/24 01:11:16;;;;;;;16.23;9.30;;;15.10;93.10;;;;;;5024448;28;20072;-67
2023/08/24 01:13:57;;;;;;;13.57;9.27;;;15.10;93.10;;;;;;5011504;28;20037;-67
2023/08/24 01:16:27;;;;;;;15.27;9.87;;;15.20;93.20;;;;;;5011708;28;20311;-67
2023/08/24 01:19:00;;;;;;;13.93;9.17;;;15.20;93.20;;;;;;5011560;28;20311;-67
2023/08/24 01:21:28;;;;;;;12.13;8.60;;;15.30;93.20;;;;;;4995237;28;20276;-67
2023/08/24 01:24:18;;;;;;;13.07;8.47;;;15.30;93.30;;;;;;5008514;28;20691;-67
2023/08/24 01:26:46;;;;;;;13.87;7.97;;;15.40;93.50;;;;;;5008878;28;20299;-67
2023/08/24 01:29:11;;;;;;;11.57;7.80;;;15.40;93.70;;;;;;5009806;28;20335;-67
2023/08/24 01:31:37;;;;;;;13.83;8.77;;;15.50;93.60;;;;;;4997208;28;20300;-67
2023/08/24 01:34:03;;;;;;;9.43;7.37;;;15.50;93.80;;;;;;5009770;28;20450;-67
2023/08/24 01:36:30;;;;;;;12.70;8.10;;;15.50;93.90;;;;;;5007627;28;20378;-67
2023/08/24 01:39:28;;;;;;;11.30;7.20;;;15.50;93.80;;;;;;5014360;28;20041;-67
2023/08/24 01:41:58;;;;;;;11.10;7.57;;;15.60;94.00;;;;;;5010887;28;20632;-67
2023/08/24 01:44:27;;;;;;;11.73;7.73;;;15.60;94.20;;;;;;5017771;28;20287;-67
2023/08/24 01:46:54;;;;;;;12.97;8.27;;;15.60;94.20;;;;;;4997166;28;20280;-67
2023/08/24 01:49:22;;;;;;;11.80;8.10;;;15.50;94.30;;;;;;5010573;28;20334;-67
2023/08/24 01:51:49;;;;;;;16.17;8.03;;;15.50;94.50;;;;;;4995474;28;20835;-67
2023/08/24 01:54:15;;;;;;;12.50;8.27;;;15.50;94.50;;;;;;4999244;28;20415;-67
2023/08/24 01:56:40;;;;;;;15.43;8.50;;;15.50;94.40;;;;;;5009226;28;20412;-67
2023/08/24 01:59:06;;;;;;;13.87;8.23;;;15.50;94.70;;;;;;5010139;28;20548;-67
2023/08/24 02:01:32;;;;;;;12.07;9.07;;;15.40;94.60;;;;;;5005573;28;20057;-67
2023/08/24 02:03:59;;;;;;;13.73;9.07;;;15.40;95.20;;;;;;5003185;28;20049;-67
2023/08/24 02:06:24;;;;;;;11.93;8.03;;;15.30;95.00;;;;;;4999562;28;20069;-67
2023/08/24 02:08:50;;;;;;;12.87;8.20;;;15.30;94.80;;;;;;5010860;28;20340;-67
2023/08/24 02:11:16;;;;;;;11.87;8.10;;;15.20;94.70;;;;;;5010904;28;20037;-67
2023/08/24 02:13:42;;;;;;;10.03;7.50;;;15.20;94.60;;;;;;5007178;28;20112;-67
2023/08/24 02:16:08;;;;;;;12.17;8.47;;;15.10;94.70;;;;;;5011190;28;20045;-67
2023/08/24 02:18:34;;;;;;;14.00;9.00;;;15.10;94.70;;;;;;5010064;28;20042;-67
2023/08/24 02:21:00;;;;;;;12.13;8.27;;;15.00;94.70;;;;;;5009297;28;20326;-67
2023/08/24 02:23:26;;;;;;;13.30;8.07;;;14.90;94.70;;;;;;5010498;28;20083;-67
2023/08/24 02:25:52;;;;;;;12.57;8.00;;;14.90;94.70;;;;;;5019783;28;20736;-67
2023/08/24 02:28:17;;;;;;;11.77;8.13;;;14.90;94.70;;;;;;4998058;28;20045;-67
2023/08/24 02:30:44;;;;;;;12.40;8.43;;;14.90;95.00;;;;;;5011575;28;20795;-67
2023/08/24 02:33:10;;;;;;;10.83;8.07;;;14.90;95.20;;;;;;5012513;28;20361;-67
2023/08/24 02:35:35;;;;;;;13.77;8.37;;;14.90;95.10;;;;;;5010544;28;20049;-67
2023/08/24 02:38:01;;;;;;;12.43;8.47;;;14.90;95.30;;;;;;5013608;28;20156;-67
2023/08/24 02:40:27;;;;;;;13.87;9.00;;;14.80;95.10;;;;;;5010418;28;20044;-67
2023/08/24 02:42:52;;;;;;;11.10;9.10;;;14.80;95.00;;;;;;5007809;28;20045;-67
2023/08/24 02:45:18;;;;;;;13.97;8.00;;;14.80;95.10;;;;;;5010672;28;20501;-67
2023/08/24 02:47:44;;;;;;;12.57;8.33;;;14.80;94.90;;;;;;5009841;28;20076;-67
2023/08/24 02:50:10;;;;;;;13.67;8.20;;;14.80;94.80;;;;;;5009397;28;20057;-67
2023/08/24 02:52:35;;;;;;;12.17;8.57;;;14.70;95.00;;;;;;4993465;28;20068;-67
2023/08/24 02:55:01;;;;;;;12.87;8.27;;;14.70;95.00;;;;;;5019476;28;20116;-67
2023/08/24 02:57:27;;;;;;;17.03;9.27;;;14.70;94.90;;;;;;5026893;28;20115;-67
2023/08/24 02:59:53;;;;;;;10.47;8.17;;;14.60;95.00;;;;;;4993264;28;20053;-67
2023/08/24 03:02:19;;;;;;;13.23;8.43;;;14.60;94.90;;;;;;5009483;28;20037;-67
2023/08/24 03:04:45;;;;;;;13.20;8.80;;;14.50;94.90;;;;;;5009911;28;20310;-67
2023/08/24 03:07:10;;;;;;;13.67;7.97;;;14.50;94.80;;;;;;5014844;28;20040;-67
2023/08/24 03:09:36;;;;;;;12.23;8.50;;;14.40;94.80;;;;;;4993500;28;20049;-67
2023/08/24 03:12:02;;;;;;;10.57;7.67;;;14.40;94.90;;;;;;5008736;28;20472;-67
2023/08/24 03:14:28;;;;;;;9.13;8.03;;;14.40;95.00;;;;;;5009460;28;20052;-67
2023/08/24 03:16:54;;;;;;;12.67;8.77;;;14.40;95.10;;;;;;5009177;28;20661;-67
2023/08/24 03:19:20;;;;;;;10.30;7.80;;;14.40;95.10;;;;;;5009067;28;20080;-67
2023/08/24 03:21:45;;;;;;;13.53;8.60;;;14.40;95.40;;;;;;4992336;28;20129;-67
2023/08/24 03:24:11;;;;;;;11.67;7.97;;;14.40;95.30;;;;;;4993177;28;20079;-67
2023/08/24 03:26:37;;;;;;;10.80;7.90;;;14.40;95.10;;;;;;5010952;28;20046;-67
2023/08/24 03:29:02;;;;;;;13.57;8.00;;;14.40;95.40;;;;;;5009978;28;20336;-67
2023/08/24 03:31:28;;;;;;;17.73;9.73;;;14.50;95.70;;;;;;5020559;28;20057;-67
2023/08/24 03:33:54;;;;;;;11.17;8.23;;;14.50;95.80;;;;;;5009444;28;20704;-67
2023/08/24 03:36:20;;;;;;;12.23;7.90;;;14.50;95.70;;;;;;5009641;28;20284;-67
2023/08/24 03:38:46;;;;;;;13.93;8.50;;;14.60;95.70;;;;;;5008952;28;20630;-67
2023/08/24 03:41:12;;;;;;;11.47;8.63;;;14.60;95.60;;;;;;4994932;28;20300;-67
2023/08/24 03:43:37;;;;;;;12.47;7.70;;;14.60;95.60;;;;;;5019782;28;20081;-67
2023/08/24 03:46:05;;;;;;;12.33;7.57;;;14.60;95.40;;;;;;5006363;28;20056;-67
2023/08/24 03:48:31;;;;;;;13.23;8.03;;;14.60;95.40;;;;;;5008332;28;20053;-67
2023/08/24 03:50:57;;;;;;;11.07;8.27;;;14.60;95.60;;;;;;5008033;28;20544;-67
2023/08/24 03:53:24;;;;;;;14.33;8.40;;;14.60;95.60;;;;;;5010579;28;20280;-67
2023/08/24 03:55:54;;;;;;;13.93;8.13;;;14.60;95.60;;;;;;5010720;28;20281;-67
2023/08/24 03:58:20;;;;;;;13.57;8.57;;;14.60;95.50;;;;;;5026324;28;20304;-67
2023/08/24 04:00:46;;;;;;;14.73;8.20;;;14.60;95.70;;;;;;5010489;28;20797;-67
2023/08/24 04:03:12;;;;;;;12.80;8.60;;;14.60;95.80;;;;;;5010201;28;20299;-67
2023/08/24 04:05:38;;;;;;;11.13;7.90;;;14.60;95.60;;;;;;5009542;28;20050;-67
2023/08/24 04:08:04;;;;;;;8.93;6.70;;;14.60;95.60;;;;;;5010931;28;20307;-67
2023/08/24 04:10:30;;;;;;;11.73;7.87;;;14.60;95.50;;;;;;5010427;28;20281;-67
2023/08/24 04:12:56;;;;;;;13.50;7.50;;;14.60;95.60;;;;;;5010111;28;20033;-67
2023/08/24 04:15:22;;;;;;;13.47;7.70;;;14.60;95.60;;;;;;5009843;28;20355;-67
2023/08/24 04:17:48;;;;;;;9.73;6.50;;;14.50;95.50;;;;;;5010321;28;20049;-67
2023/08/24 04:20:15;;;;;;;9.83;6.57;;;14.50;95.60;;;;;;5010528;28;20034;-67
2023/08/24 04:22:41;;;;;;;13.73;6.83;;;14.50;95.60;;;;;;5009174;28;20311;-67
2023/08/24 04:25:08;;;;;;;11.00;7.43;;;14.40;95.90;;;;;;5009607;28;20299;-67
2023/08/24 04:27:33;;;;;;;13.20;7.00;;;14.40;95.90;;;;;;5015786;28;20402;-67
2023/08/24 04:30:00;;;;;;;13.20;6.63;;;14.40;96.00;;;;;;5009409;28;20371;-67
2023/08/24 04:32:27;;;;;;;11.57;6.63;;;14.40;96.00;;;;;;5011153;28;20046;-67
2023/08/24 04:34:53;;;;;;;9.60;6.30;;;14.40;96.10;;;;;;5006786;28;20740;-67
2023/08/24 04:37:19;;;;;;;12.20;6.47;;;14.40;96.30;;;;;;5009637;28;20284;-67
2023/08/24 04:39:45;;;;;;;12.70;6.70;;;14.50;96.40;;;;;;5010339;28;20037;-67
2023/08/24 04:42:11;;;;;;;10.70;6.80;;;14.50;96.10;;;;;;5005445;28;20050;-67
2023/08/24 04:44:37;;;;;;;10.77;6.80;;;14.50;96.30;;;;;;5004072;28;20696;-67
2023/08/24 04:47:03;;;;;;;11.83;6.67;;;14.50;96.40;;;;;;5006436;28;20042;-67
2023/08/24 04:49:30;;;;;;;10.03;6.40;;;14.50;96.40;;;;;;5011317;28;20046;-67
2023/08/24 04:51:56;;;;;;;11.87;6.30;;;14.40;96.40;;;;;;5008189;28;20097;-67
2023/08/24 04:54:21;;;;;;;13.17;6.53;;;14.50;96.30;;;;;;5008144;28;20676;-67
2023/08/24 04:56:47;;;;;;;14.90;6.30;;;14.40;96.20;;;;;;5010079;28;20135;-67
2023/08/24 04:59:13;;;;;;;11.30;6.17;;;14.40;96.20;;;;;;5010165;28;20044;-67
2023/08/24 05:01:38;;;;;;;12.27;6.57;;;14.50;96.30;;;;;;5012796;28;20041;-67
2023/08/24 05:04:04;;;;;;;10.03;5.93;;;14.50;96.60;;;;;;5013099;28;20049;-67
2023/08/24 05:06:30;;;;;;;10.60;6.30;;;14.50;96.40;;;;;;5011255;28;20082;-67
2023/08/24 05:08:55;;;;;;;10.20;6.00;;;14.50;96.50;;;;;;5016452;28;20046;-67
2023/08/24 05:11:24;;;;;;;10.33;6.33;;;14.50;96.50;;;;;;5009875;28;20493;-67
2023/08/24 05:13:50;;;;;;;12.13;6.60;;;14.50;96.40;;;;;;5007513;28;20510;-67
2023/08/24 05:16:16;;;;;;;9.43;6.13;;;14.50;96.30;;;;;;5009701;28;20295;-67
2023/08/24 05:18:42;;;;;;;12.90;6.47;;;14.50;96.40;;;;;;5006370;28;20038;-67
2023/08/24 05:21:07;;;;;;;8.53;6.27;;;14.50;96.40;;;;;;5009365;28;20806;-67
2023/08/24 05:23:34;;;;;;;9.43;6.63;;;14.50;96.80;;;;;;5005128;28;20038;-67
2023/08/24 05:26:01;;;;;;;10.30;6.57;;;14.50;97.00;;;;;;5005239;28;20108;-67
2023/08/24 05:28:28;;;;;;;10.20;6.80;;;14.50;96.70;;;;;;5004500;28;20309;-67
2023/08/24 05:30:54;;;;;;;10.67;6.37;;;14.50;96.80;;;;;;5009557;28;20311;-67
2023/08/24 05:33:20;;;;;;;9.77;5.97;;;14.50;96.90;;;;;;5024070;28;20552;-67
2023/08/24 05:35:47;;;;;;;10.00;5.63;;;14.60;96.80;;;;;;5021197;28;20283;-67
2023/08/24 05:38:14;;;;;;;12.03;6.73;;;14.60;96.90;;;;;;5028681;28;20295;-67
2023/08/24 05:40:41;;;;;;;8.13;5.57;;;14.70;96.90;;;;;;5019663;28;20288;-67
2023/08/24 05:43:07;;;;;;;11.40;6.47;;;14.70;96.60;;;;;;5017323;28;20354;-67
2023/08/24 05:45:32;;;;;;;8.83;5.40;;;14.70;96.40;;;;;;5023315;28;20791;-67
2023/08/24 05:47:58;;;;;;;8.63;5.83;;;14.80;96.40;;;;;;5025612;28;20496;-67
2023/08/24 05:50:24;;;;;;;8.60;5.70;;;14.90;96.70;;;;;;5020005;28;20597;-67
2023/08/24 05:52:50;;;;;;;8.93;5.17;;;15.00;96.60;;;;;;5028719;28;20044;-67
2023/08/24 05:55:16;;;;;;;11.77;6.30;;;15.00;96.60;;;;;;5021992;28;21698;-67
2023/08/24 05:57:41;;;;;;;10.17;6.10;;;15.10;97.10;;;;;;5026314;28;20037;-67
2023/08/24 06:00:10;;;;;;;12.80;5.83;;;15.20;96.90;;;;;;5027344;28;20128;-67
2023/08/24 06:02:37;;;;;;;10.87;6.00;;;15.20;96.60;;;;;;5027658;28;20037;-67
2023/08/24 06:05:03;;;;;;;9.53;5.30;;;15.40;96.30;;;;;;5027576;28;20291;-67
2023/08/24 06:07:29;;;;;;;7.30;5.37;;;15.40;96.10;;;;;;5019774;28;20723;-67
2023/08/24 06:09:56;;;;;;;10.37;5.63;;;15.50;96.10;;;;;;5026799;28;20037;-67
2023/08/24 06:12:22;;;;;;;12.30;6.60;;;15.60;96.20;;;;;;5026084;28;20290;-67
2023/08/24 06:14:48;;;;;;;11.40;6.60;;;15.70;96.00;;;;;;5024881;28;20306;-67
2023/08/24 06:17:13;;;;;;;8.37;5.63;;;15.80;96.00;;;;;;5029302;28;20405;-67
2023/08/24 06:19:39;;;;;;;11.07;5.63;;;15.90;95.90;;;;;;5030242;28;20037;-67
2023/08/24 06:22:05;;;;;;;7.33;5.33;;;16.00;96.10;;;;;;5027234;28;20071;-67
2023/08/24 06:24:31;;;;;;;9.17;5.33;;;16.10;95.90;;;;;;5013290;28;20124;-67
2023/08/24 06:26:57;;;;;;;10.93;5.33;;;16.20;95.60;;;;;;5029945;28;20438;-67
2023/08/24 06:29:22;;;;;;;8.23;4.93;;;16.40;95.40;;;;;;5028019;28;20037;-67
2023/08/24 06:31:48;;;;;;;8.40;4.90;;;16.40;95.20;;;;;;5029870;28;20494;-67
2023/08/24 06:34:14;;;;;;;9.47;4.43;;;16.50;95.00;;;;;;5025171;28;20041;-67
2023/08/24 06:36:40;;;;;;;6.93;5.20;;;16.60;94.90;;;;;;5029538;28;20113;-67
2023/08/24 06:39:05;;;;;;;8.30;5.37;;;16.70;94.80;;;;;;5013191;28;20052;-67
2023/08/24 06:41:35;;;;;;;7.60;4.77;;;16.80;94.70;;;;;;5031200;28;20584;-67
2023/08/24 06:44:01;;;;;;;7.17;5.00;;;16.90;94.40;;;;;;5032017;28;20041;-67
2023/08/24 06:46:27;;;;;;;7.10;5.03;;;17.10;94.30;;;;;;5035232;28;20784;-67
2023/08/24 06:48:52;;;;;;;4.73;4.03;;;17.20;94.40;;;;;;5022484;28;20322;-67
2023/08/24 06:51:18;;;;;;;10.67;4.70;;;17.40;94.90;;;;;;5020635;28;20041;-67
2023/08/24 06:53:46;;;;;;;5.77;4.03;;;17.50;94.60;;;;;;5030721;28;20047;-67
2023/08/24 06:56:14;;;;;;;9.50;4.50;;;17.70;93.90;;;;;;5031087;28;20075;-67
2023/08/24 06:58:39;;;;;;;7.57;3.83;;;17.80;93.40;;;;;;5030469;28;20989;-67
2023/08/24 07:01:06;;;;;;;7.90;4.27;;;17.90;93.10;;;;;;5023288;28;20311;-67
2023/08/24 07:03:35;;;;;;;5.07;4.03;;;18.00;92.70;;;;;;5016592;28;20037;-67
2023/08/24 07:06:00;;;;;;;7.60;4.17;;;18.10;92.30;;;;;;5017467;28;21327;-67
2023/08/24 07:08:26;;;;;;;6.57;3.83;;;18.20;91.90;;;;;;5018905;28;20308;-67
2023/08/24 07:10:52;;;;;;;7.50;4.40;;;18.30;91.40;;;;;;5016583;28;20413;-67
2023/08/24 07:13:17;;;;;;;7.70;4.57;;;18.40;90.70;;;;;;5023530;28;20040;-67
2023/08/24 07:15:45;;;;;;;8.27;5.20;;;18.50;90.10;;;;;;5021946;28;20033;-67
2023/08/24 07:18:11;;;;;;;6.97;4.17;;;18.60;90.00;;;;;;5020642;28;20037;-67
2023/08/24 07:20:37;;;;;;;6.47;4.20;;;18.70;89.10;;;;;;5025465;28;20353;-67
2023/08/24 07:23:03;;;;;;;5.67;3.50;;;18.80;88.70;;;;;;5040006;28;20547;-67
2023/08/24 07:25:29;;;;;;;7.60;3.40;;;18.80;88.10;;;;;;5027080;28;20287;-67
2023/08/24 07:27:59;;;;;;;4.87;2.60;;;18.90;87.50;;;;;;5023333;28;20041;-67
2023/08/24 07:30:28;;;;;;;6.47;3.33;;;19.00;86.70;;;;;;5029634;28;20041;-67
2023/08/24 07:32:54;;;;;;;9.77;2.93;;;19.10;86.30;;;;;;5026404;28;20044;-67
2023/08/24 07:35:20;;;;;;;7.20;2.77;;;19.20;86.60;;;;;;5030171;28;20290;-67
2023/08/24 07:37:47;;;;;;;6.93;3.70;;;19.20;85.10;;;;;;5013452;28;20072;-67
2023/08/24 07:40:16;;;;;;;8.80;3.57;;;19.40;85.70;;;;;;5011846;28;20036;-67
2023/08/24 07:42:46;;;;;;;6.03;3.00;;;19.50;84.60;;;;;;5028257;28;20378;-67
2023/08/24 07:45:13;;;;;;;7.77;3.67;;;19.60;84.10;;;;;;5030748;28;20452;-67
2023/08/24 07:47:40;;;;;;;10.73;4.77;;;19.60;83.90;;;;;;5028447;28;20039;-67
2023/08/24 07:50:07;;;;;;;10.60;5.13;;;19.70;83.90;;;;;;5026844;28;20120;-67
2023/08/24 07:52:33;;;;;;;9.03;4.53;;;19.80;84.20;;;;;;5027837;28;20037;-67
2023/08/24 07:55:00;;;;;;;9.30;5.00;;;19.90;83.90;;;;;;5029180;28;20047;-67
2023/08/24 07:57:26;;;;;;;10.10;5.80;;;20.00;84.10;;;;;;5011668;28;20511;-67
2023/08/24 07:59:52;;;;;;;9.50;6.07;;;20.10;83.80;;;;;;5012541;28;20033;-67
2023/08/24 08:02:18;;;;;;;10.97;6.03;;;20.20;84.20;;;;;;5007908;28;20059;-67
2023/08/24 08:04:44;;;;;;;8.43;5.47;;;20.30;84.10;;;;;;5029945;28;20114;-68
2023/08/24 08:07:09;;;;;;;9.17;6.17;;;20.50;84.30;;;;;;5026812;28;20401;-68
2023/08/24 08:09:36;;;;;;;13.13;7.10;;;20.50;84.00;;;;;;5023908;28;20105;-68
2023/08/24 08:12:03;;;;;;;9.60;6.33;;;20.70;83.30;;;;;;5021178;28;20040;-68
2023/08/24 08:14:29;;;;;;;11.30;6.03;;;20.70;83.10;;;;;;5027645;28;20245;-68
2023/08/24 08:16:56;;;;;;;9.60;6.33;;;20.90;83.20;;;;;;5024419;28;20448;-68
2023/08/24 08:19:25;;;;;;;11.40;6.33;;;21.00;82.90;;;;;;5010051;28;20067;-68
2023/08/24 08:21:51;;;;;;;11.17;6.20;;;21.00;82.70;;;;;;5018715;28;20834;-69
2023/08/24 08:24:16;;;;;;;10.67;6.20;;;21.10;82.50;;;;;;5021983;28;20041;-69
2023/08/24 08:26:42;;;;;;;12.00;6.40;;;21.30;82.50;;;;;;5030284;28;20520;-69
2023/08/24 08:29:08;;;;;;;9.47;6.13;;;21.40;82.60;;;;;;5023203;28;20041;-69
2023/08/24 08:31:33;;;;;;;11.87;6.43;;;21.50;82.70;;;;;;5029358;28;20041;-69
2023/08/24 08:33:59;;;;;;;11.07;5.80;;;21.60;82.60;;;;;;5024775;28;20541;-69
2023/08/24 08:36:25;;;;;;;10.77;5.87;;;21.80;82.00;;;;;;5025161;28;20251;-69
2023/08/24 08:38:51;;;;;;;10.93;6.43;;;21.90;81.80;;;;;;5024775;28;20076;-69
2023/08/24 08:41:21;;;;;;;10.50;5.63;;;22.00;80.10;;;;;;5024587;28;20053;-69
2023/08/24 08:43:48;;;;;;;8.20;5.60;;;22.10;80.70;;;;;;5028846;28;20037;-69
2023/08/24 08:46:16;;;;;;;12.13;5.80;;;22.20;80.10;;;;;;5029743;28;20036;-69
2023/08/24 08:48:43;;;;;;;9.60;5.70;;;22.30;79.60;;;;;;5029658;28;20380;-69
2023/08/24 08:51:10;;;;;;;9.47;5.00;;;22.30;77.80;;;;;;5027291;28;20093;-69
2023/08/24 08:53:36;;;;;;;8.90;4.73;;;22.30;78.90;;;;;;5028491;28;20080;-68
2023/08/24 08:56:05;;;;;;;9.70;5.10;;;22.30;79.00;;;;;;5023408;28;20071;-69
2023/08/24 08:58:36;;;;;;;9.43;5.67;;;22.30;78.30;;;;;;5026718;28;20198;-69
2023/08/24 09:01:05;;;;;;;10.07;4.90;;;22.30;77.80;;;;;;5027333;28;20067;-69
2023/08/24 09:03:32;;;;;;;10.77;4.70;;;22.30;78.50;;;;;;5019074;28;20094;-69
2023/08/24 09:05:58;;;;;;;8.07;4.53;;;22.40;77.70;;;;;;5006374;28;20044;-69
2023/08/24 09:08:25;;;;;;;8.37;4.87;;;22.40;77.80;;;;;;5028263;28;20041;-69
2023/08/24 09:10:51;;;;;;;8.80;4.80;;;22.50;77.50;;;;;;5027232;28;20106;-69
2023/08/24 09:13:17;;;;;;;11.43;4.77;;;22.60;77.20;;;;;;5029916;28;20111;-69
2023/08/24 09:15:43;;;;;;;10.43;4.47;;;22.60;77.00;;;;;;5023620;28;20110;-69
2023/08/24 09:18:09;;;;;;;8.23;4.63;;;22.60;76.60;;;;;;5031033;28;20079;-69
2023/08/24 09:20:34;;;;;;;9.27;5.03;;;22.60;76.50;;;;;;5028990;28;20093;-69
2023/08/24 09:23:01;;;;;;;8.70;5.77;;;22.60;76.80;;;;;;5032660;28;20946;-69
2023/08/24 09:25:27;;;;;;;9.83;5.47;;;22.50;76.30;;;;;;5037378;28;20132;-69
2023/08/24 09:28:01;;;;;;;9.40;5.10;;;22.40;76.30;;;;;;5030546;28;20098;-69
2023/08/24 09:30:35;;;;;;;9.93;4.73;;;22.30;76.80;;;;;;5032692;28;20036;-69
2023/08/24 09:33:09;;;;;;;7.63;4.35;;;22.30;77.10;;;;;;5030189;28;20315;-69
2023/08/24 09:35:36;;;;;;;8.73;5.38;;;22.20;77.00;;;;;;5023345;28;20041;-69
2023/08/24 09:38:17;;;;;;;8.90;5.47;;;22.20;76.90;;;;;;5030021;28;20483;-68
2023/08/24 09:40:47;;;;;;;8.83;6.17;;;22.10;77.60;;;;;;5028082;28;20037;-68
2023/08/24 09:43:13;;;;;;;7.50;5.00;;;22.00;77.80;;;;;;5009167;28;20041;-69
2023/08/24 09:45:50;;;;;;;10.33;5.37;;;21.90;77.60;;;;;;5026893;28;20398;-69
2023/08/24 09:48:19;;;;;;;9.60;4.67;;;21.90;77.80;;;;;;5010790;28;20050;-68
2023/08/24 09:50:50;;;;;;;9.10;5.43;;;21.80;78.20;;;;;;5028900;28;20445;-68
2023/08/24 09:53:20;;;;;;;9.63;5.03;;;21.70;78.40;;;;;;5027247;28;20037;-69
2023/08/24 09:55:54;;;;;;;9.17;5.47;;;21.70;78.90;;;;;;5025547;28;20052;-68
2023/08/24 09:58:20;;;;;;;7.17;4.97;;;21.70;79.10;;;;;;5027530;28;20500;-68
2023/08/24 10:00:47;;;;;;;8.17;5.00;;;21.60;79.20;;;;;;5037784;28;20056;-68
2023/08/24 10:03:20;;;;;;;7.07;5.87;;;21.60;79.40;;;;;;5023726;28;20045;-69
2023/08/24 10:06:03;;;;;;;9.30;5.37;;;21.50;80.00;;;;;;5005873;28;20045;-69
2023/08/24 10:08:39;;;;;;;8.70;5.20;;;21.40;80.60;;;;;;5027889;28;20044;-69
2023/08/24 10:11:06;;;;;;;10.63;5.70;;;21.30;80.90;;;;;;5030100;28;20062;-69
2023/08/24 10:13:47;;;;;;;11.47;6.03;;;21.20;81.60;;;;;;5028508;28;20035;-69
2023/08/24 10:16:15;;;;;;;11.40;5.70;;;21.10;81.90;;;;;;5026210;28;20039;-69
2023/08/24 10:18:42;;;;;;;10.87;6.07;;;21.00;82.40;;;;;;5025845;28;20080;-69
2023/08/24 10:21:08;;;;;;;12.90;6.40;;;20.90;83.00;;;;;;5025820;28;20041;-69
2023/08/24 10:23:38;;;;;;;9.47;6.80;;;20.90;83.10;;;;;;5024859;28;20049;-69
2023/08/24 10:26:07;;;;;;;9.80;6.60;;;20.80;83.50;;;;;;5021036;28;20045;-69
2023/08/24 10:28:34;;;;;;;9.33;6.17;;;20.80;84.30;;;;;;5025405;28;20045;-69
2023/08/24 10:31:01;;;;;;;10.40;7.30;;;20.70;84.40;;;;;;5028985;28;20569;-69
2023/08/24 10:33:28;;;;;;;9.97;6.93;;;20.70;84.60;;;;;;5031589;28;20853;-70
2023/08/24 10:35:53;;;;;;;16.23;7.33;;;20.60;85.10;;;;;;5033300;28;20040;-69
2023/08/24 10:38:27;;;;;;;10.43;7.00;;;20.60;85.60;;;;;;5027780;28;20406;-69
2023/08/24 10:40:53;;;;;;;11.70;7.17;;;20.60;85.70;;;;;;5020385;28;20120;-69
2023/08/24 10:43:20;;;;;;;10.50;6.30;;;20.60;86.30;;;;;;5026672;28;20052;-70
2023/08/24 10:46:03;;;;;;;11.43;6.93;;;20.60;86.80;;;;;;5030542;28;20037;-70
2023/08/24 10:48:41;;;;;;;12.07;7.27;;;20.60;87.20;;;;;;5034151;28;20096;-70
2023/08/24 10:51:17;;;;;;;15.23;7.73;;;20.60;87.70;;;;;;5050167;28;20128;-70
2023/08/24 10:53:48;;;;;;;11.13;6.73;;;20.60;88.00;;;;;;5039490;28;20044;-71
2023/08/24 10:56:15;;;;;;;10.47;8.13;;;20.60;88.50;;;;;;5035494;28;20037;-71
2023/08/24 10:58:45;;;;;;;10.87;7.03;;;20.50;88.90;;;;;;5031895;28;20084;-72
2023/08/24 11:01:18;;;;;;;16.27;7.87;;;20.50;89.20;;;;;;5025504;28;20049;-72
2023/08/24 11:03:57;;;;;;;10.47;7.07;;;20.50;89.50;;;;;;5030797;28;20459;-72
2023/08/24 11:06:25;;;;;;;13.67;7.63;;;20.50;90.10;;;;;;5031454;28;20052;-72
2023/08/24 11:09:06;;;;;;;11.60;8.20;;;20.50;90.40;;;;;;5029411;28;20072;-72
2023/08/24 11:11:32;;;;;;;12.67;7.53;;;20.50;90.90;;;;;;5032925;28;20042;-72
2023/08/24 11:14:22;;;;;;;10.50;7.30;;;20.50;91.50;;;;;;5025384;28;20044;-73
2023/08/24 11:16:48;;;;;;;13.17;7.77;;;20.50;91.80;;;;;;5026005;28;20041;-72
2023/08/24 11:19:15;;;;;;;12.67;8.03;;;20.50;92.80;;;;;;5027104;28;20616;-72
2023/08/24 11:21:46;;;;;;;14.83;8.67;;;20.50;92.70;;;;;;5025361;28;20059;-72
2023/08/24 11:24:16;;;;;;;12.13;8.00;;;20.50;92.60;;;;;;5033248;28;20097;-72
2023/08/24 11:26:44;;;;;;;13.37;8.30;;;20.50;92.80;;;;;;5031065;28;20045;-72
2023/08/24 11:29:10;;;;;;;11.77;7.90;;;20.50;92.80;;;;;;5030347;28;20037;-72
2023/08/24 11:31:36;;;;;;;13.00;7.73;;;20.60;93.20;;;;;;5031328;28;20057;-72
2023/08/24 11:34:04;;;;;;;11.10;7.87;;;20.70;93.30;;;;;;5033099;28;20049;-72
2023/08/24 11:36:50;;;;;;;11.03;8.37;;;20.80;93.40;;;;;;5031441;28;20473;-72
2023/08/24 11:39:21;;;;;;;11.87;8.20;;;20.80;94.10;;;;;;5027964;28;20444;-73
2023/08/24 11:42:07;;;;;;;11.70;8.47;;;20.80;93.70;;;;;;5026048;28;20555;-73
2023/08/24 11:44:49;;;;;;;12.50;8.70;;;20.80;93.50;;;;;;5029550;28;20041;-72
2023/08/24 11:47:15;;;;;;;13.13;8.90;;;20.90;93.20;;;;;;5012861;28;20125;-73
2023/08/24 11:49:42;;;;;;;13.50;9.30;;;20.90;93.10;;;;;;5029628;28;20479;-73
2023/08/24 11:52:08;;;;;;;14.07;9.60;;;20.90;93.20;;;;;;5030193;28;20049;-72
2023/08/24 11:54:38;;;;;;;13.83;9.07;;;21.00;93.10;;;;;;5014115;28;20032;-73
2023/08/24 11:57:08;;;;;;;11.60;9.30;;;21.00;93.20;;;;;;5025976;28;20107;-72
2023/08/24 11:59:35;;;;;;;14.07;9.23;;;21.00;93.10;;;;;;5028202;28;20533;-72
2023/08/24 12:02:02;;;;;;;14.97;10.33;;;21.00;93.20;;;;;;5028439;28;20040;-73
2023/08/24 12:04:27;;;;;;;16.17;11.57;;;21.00;93.10;;;;;;5029235;28;20036;-72
2023/08/24 12:06:53;;;;;;;15.20;11.23;;;21.10;93.50;;;;;;5030055;28;20183;-73
2023/08/24 12:09:19;;;;;;;16.37;10.47;;;21.10;93.70;;;;;;5029785;28;20049;-73
2023/08/24 12:11:44;;;;;;;14.97;10.67;;;21.10;93.70;;;;;;5028187;28;20062;-73
2023/08/24 12:14:17;;;;;;;14.17;11.13;;;21.10;93.50;;;;;;5027451;28;20033;-72
2023/08/24 12:16:43;;;;;;;14.27;10.77;;;21.00;93.40;;;;;;5028598;28;20120;-73
2023/08/24 12:19:09;;;;;;;13.90;11.17;;;20.90;93.30;;;;;;5028606;28;20064;-73
2023/08/24 12:21:34;;;;;;;14.93;12.30;;;20.80;93.30;;;;;;5028451;28;20124;-73
2023/08/24 12:24:05;;;;;;;15.30;11.50;;;20.80;94.10;;;;;;5027350;28;20569;-73
2023/08/24 12:26:34;;;;;;;15.53;10.90;;;20.80;94.90;;;;;;5024719;28;20046;-72
2023/08/24 12:29:02;;;;;;;16.93;11.93;;;20.90;95.60;;;;;;5032006;28;20138;-73
2023/08/24 12:31:29;;;;;;;12.53;10.30;;;20.90;95.70;;;;;;5011078;28;21639;-73
2023/08/24 12:34:05;;;;;;;18.60;12.23;;;21.00;95.40;;;;;;5024179;28;20063;-73
2023/08/24 12:36:36;;;;;;;17.33;11.07;;;21.00;95.30;;;;;;5028292;28;20589;-73
2023/08/24 12:39:05;;;;;;;15.37;11.33;;;21.10;95.20;;;;;;5025682;28;20124;-73